createdAt,value
2023-01-29T00:00:14.084Z,89.18
2023-01-29T00:05:28.517Z,89.60
2023-01-29T00:10:34.262Z,89.83
2023-01-29T00:15:38.135Z,90.14
2023-01-29T00:20:45.124Z,89.94
2023-01-29T00:25:50.931Z,89.86
2023-01-29T00:30:55.158Z,89.94
2023-01-29T00:35:59.184Z,89.53
2023-01-29T00:41:26.218Z,89.82
2023-01-29T00:46:30.235Z,88.98
2023-01-29T00:51:34.726Z,89.31
2023-01-29T00:56:40.443Z,88.22
2023-01-29T01:02:02.147Z,88.47
2023-01-29T01:07:07.078Z,89.05
2023-01-29T01:12:12.959Z,89.30
2023-01-29T01:17:16.906Z,89.64
2023-01-29T01:22:23.305Z,89.27
2023-01-29T01:27:30.101Z,89.17
2023-01-29T01:32:34.454Z,89.02
2023-01-29T01:37:38.979Z,89.51
2023-01-29T01:42:44.639Z,89.77
2023-01-29T01:47:53.519Z,89.68
2023-01-29T01:53:02.837Z,89.85
2023-01-29T01:58:13.565Z,89.40
2023-01-29T02:03:38.533Z,89.93
2023-01-29T02:09:07.614Z,90.00
2023-01-29T02:14:14.597Z,89.08
2023-01-29T02:19:27.108Z,89.87
2023-01-29T02:25:09.824Z,89.18
2023-01-29T02:30:22.273Z,89.92
2023-01-29T02:35:33.441Z,90.11
2023-01-29T02:40:44.324Z,89.78
2023-01-29T02:45:58.050Z,89.64
2023-01-29T02:51:10.020Z,90.16
2023-01-29T02:56:20.347Z,89.85
2023-01-29T03:01:32.580Z,89.08
2023-01-29T03:06:41.489Z,88.70
2023-01-29T03:11:50.682Z,88.82
2023-01-29T03:17:00.674Z,89.14
2023-01-29T03:22:08.559Z,88.77
2023-01-29T03:27:32.525Z,89.51
2023-01-29T03:32:39.763Z,89.88
2023-01-29T03:37:48.429Z,90.18
2023-01-29T03:43:04.684Z,88.46
2023-01-29T03:48:15.399Z,86.95
2023-01-29T03:53:26.145Z,86.87
2023-01-29T03:58:38.545Z,85.93
2023-01-29T04:03:51.300Z,86.37
2023-01-29T04:09:01.224Z,85.99
2023-01-29T04:14:08.142Z,82.90
2023-01-29T04:19:13.940Z,84.52
2023-01-29T04:24:20.277Z,85.43
2023-01-29T04:29:38.283Z,85.36
2023-01-29T04:34:57.309Z,85.48
2023-01-29T04:40:12.315Z,86.14
2023-01-29T04:45:21.319Z,84.98
2023-01-29T04:50:31.981Z,83.84
2023-01-29T04:55:42.956Z,83.71
2023-01-29T05:00:50.278Z,83.78
2023-01-29T05:05:58.543Z,82.96
2023-01-29T05:11:02.787Z,83.34
2023-01-29T05:16:11.257Z,82.47
2023-01-29T05:21:16.801Z,80.96
2023-01-29T05:26:38.995Z,78.99
2023-01-29T05:31:46.080Z,81.48
2023-01-29T05:36:52.828Z,82.79
2023-01-29T05:41:57.793Z,83.35
2023-01-29T05:47:03.051Z,82.72
2023-01-29T05:52:08.644Z,83.42
2023-01-29T05:57:12.634Z,82.95
2023-01-29T06:02:16.952Z,84.73
2023-01-29T06:07:22.421Z,84.88
2023-01-29T06:12:27.409Z,85.74
2023-01-29T06:17:32.136Z,86.49
2023-01-29T06:22:38.803Z,85.89
2023-01-29T06:27:43.301Z,85.65
2023-01-29T06:32:48.449Z,86.07
2023-01-29T06:37:54.370Z,87.61
2023-01-29T06:42:58.500Z,88.85
2023-01-29T06:48:02.964Z,90.25
2023-01-29T06:53:09.321Z,88.95
2023-01-29T06:58:15.026Z,88.86
2023-01-29T07:03:19.906Z,88.02
2023-01-29T07:08:26.589Z,88.26
2023-01-29T07:13:32.123Z,89.75
2023-01-29T07:18:37.633Z,90.39
2023-01-29T07:23:44.810Z,91.36
2023-01-29T07:28:49.408Z,91.37
2023-01-29T07:33:54.333Z,91.26
2023-01-29T07:39:00.770Z,90.82
2023-01-29T07:44:06.122Z,91.07
2023-01-29T07:49:10.982Z,91.36
2023-01-29T07:54:17.837Z,91.48
2023-01-29T07:59:27.304Z,89.42
2023-01-29T08:04:32.410Z,91.27
2023-01-29T08:09:40.005Z,90.64
2023-01-29T08:14:46.377Z,89.13
2023-01-29T08:19:52.027Z,88.43
2023-01-29T08:25:06.364Z,88.17
2023-01-29T08:30:14.365Z,88.75
2023-01-29T08:35:20.723Z,88.80
2023-01-29T08:40:28.339Z,87.96
2023-01-29T08:45:48.850Z,88.54
2023-01-29T08:50:53.194Z,88.44
2023-01-29T08:55:59.153Z,89.50
2023-01-29T09:01:13.593Z,88.38
2023-01-29T09:06:28.723Z,87.96
2023-01-29T09:11:53.274Z,86.74
2023-01-29T09:17:02.407Z,88.74
2023-01-29T09:22:10.998Z,88.36
2023-01-29T09:27:21.368Z,87.41
2023-01-29T09:37:58.443Z,84.85
2023-01-29T09:43:17.614Z,83.35
2023-01-29T09:48:27.906Z,83.23
2023-01-29T09:53:50.141Z,82.57
2023-01-29T09:59:01.773Z,81.23
2023-01-29T10:04:40.431Z,79.54
2023-01-29T10:10:17.156Z,78.00
2023-01-29T10:15:36.578Z,79.63
2023-01-29T10:20:58.236Z,77.99
2023-01-29T10:26:20.881Z,74.73
2023-01-29T10:31:33.003Z,75.18
2023-01-29T10:36:44.649Z,74.54
2023-01-29T10:42:14.959Z,74.14
2023-01-29T10:47:49.577Z,72.83
2023-01-29T10:53:18.629Z,71.53
2023-01-29T10:58:32.047Z,71.40
2023-01-29T11:03:39.119Z,72.23
2023-01-29T11:08:58.254Z,71.35
2023-01-29T11:14:07.831Z,72.48
2023-01-29T11:19:15.661Z,71.38
2023-01-29T11:24:21.488Z,70.08
2023-01-29T11:29:44.992Z,69.42
2023-01-29T11:35:02.985Z,69.95
2023-01-29T11:40:46.599Z,70.25
2023-01-29T11:45:59.511Z,70.35
2023-01-29T11:51:07.142Z,70.77
2023-01-29T11:56:30.940Z,71.89
2023-01-29T12:01:41.082Z,70.04
2023-01-29T12:06:52.548Z,69.30
2023-01-29T12:12:20.168Z,69.16
2023-01-29T12:17:30.492Z,69.56
2023-01-29T12:22:47.190Z,69.70
2023-01-29T12:28:01.102Z,68.91
2023-01-29T12:33:16.080Z,68.43
2023-01-29T12:38:27.879Z,70.38
2023-01-29T12:43:41.973Z,70.63
2023-01-29T12:48:48.750Z,70.73
2023-01-29T12:53:58.960Z,69.85
2023-01-29T12:59:12.368Z,70.83
2023-01-29T13:04:24.382Z,71.14
2023-01-29T13:09:34.380Z,71.95
2023-01-29T13:14:58.946Z,70.90
2023-01-29T13:20:12.976Z,70.04
2023-01-29T13:25:22.252Z,69.55
2023-01-29T13:30:32.747Z,70.53
2023-01-29T13:35:44.045Z,71.32
2023-01-29T13:40:55.645Z,71.05
2023-01-29T13:46:10.858Z,72.04
2023-01-29T13:51:21.875Z,74.53
2023-01-29T13:56:59.387Z,73.28
2023-01-29T14:02:07.487Z,72.60
2023-01-29T14:07:46.353Z,72.55
2023-01-29T14:12:54.298Z,77.19
2023-01-29T14:18:08.569Z,76.82
2023-01-29T14:23:32.950Z,78.55
2023-01-29T14:28:38.662Z,81.19
2023-01-29T14:33:48.836Z,81.25
2023-01-29T14:38:56.160Z,81.72
2023-01-29T14:44:33.132Z,81.96
2023-01-29T14:49:55.881Z,81.87
2023-01-29T14:55:04.493Z,81.51
2023-01-29T15:00:22.825Z,80.35
2023-01-29T15:05:40.761Z,78.96
2023-01-29T15:11:11.210Z,80.34
2023-01-29T15:16:21.633Z,79.28
2023-01-29T15:21:29.680Z,80.54
2023-01-29T15:26:36.166Z,81.66
2023-01-29T15:31:46.898Z,81.65
2023-01-29T15:36:54.445Z,81.45
2023-01-29T15:42:16.004Z,82.16
2023-01-29T15:47:22.294Z,83.70
2023-01-29T15:52:33.055Z,83.60
2023-01-29T15:57:42.955Z,84.78
2023-01-29T16:02:47.466Z,85.17
2023-01-29T16:07:58.052Z,85.71
2023-01-29T16:13:02.871Z,85.17
2023-01-29T16:18:22.959Z,85.59
2023-01-29T16:23:32.461Z,85.35
2023-01-29T16:28:42.182Z,86.44
2023-01-29T16:33:46.689Z,86.69
2023-01-29T16:38:56.439Z,86.34
2023-01-29T16:44:04.265Z,85.37
2023-01-29T16:49:45.915Z,84.01
2023-01-29T16:54:52.209Z,83.67
2023-01-29T16:59:58.751Z,84.44
2023-01-29T17:05:06.613Z,85.04
2023-01-29T17:10:23.186Z,85.93
2023-01-29T17:15:45.549Z,85.55
2023-01-29T17:20:50.589Z,86.79
2023-01-29T17:25:56.080Z,86.28
2023-01-29T17:31:06.344Z,86.41
2023-01-29T17:36:16.543Z,86.46
2023-01-29T17:41:26.371Z,86.45
2023-01-29T17:46:31.960Z,86.66
2023-01-29T17:51:36.260Z,86.22
2023-01-29T17:56:42.052Z,86.00
2023-01-29T18:01:47.124Z,85.74
2023-01-29T18:06:53.171Z,86.03
2023-01-29T18:11:59.199Z,86.25
2023-01-29T18:17:06.375Z,87.08
2023-01-29T18:22:14.211Z,86.68
2023-01-29T18:27:21.570Z,86.98
2023-01-29T18:32:26.870Z,86.49
2023-01-29T18:37:31.987Z,86.94
2023-01-29T18:42:40.080Z,86.66
2023-01-29T18:47:44.947Z,86.60
2023-01-29T18:52:51.777Z,86.65
2023-01-29T18:58:27.239Z,87.21
2023-01-29T19:03:26.538Z,86.75
2023-01-29T19:08:31.331Z,85.81
2023-01-29T19:13:41.371Z,85.73
2023-01-29T19:18:46.094Z,85.27
2023-01-29T19:23:51.153Z,85.58
2023-01-29T19:28:57.832Z,86.08
2023-01-29T19:34:02.975Z,86.12
2023-01-29T19:39:15.950Z,86.30
2023-01-29T19:44:25.815Z,86.61
2023-01-29T19:49:31.313Z,86.95
2023-01-29T19:54:40.441Z,86.59
2023-01-29T19:59:48.250Z,86.26
2023-01-29T20:05:01.728Z,87.24
2023-01-29T20:10:12.314Z,88.29
2023-01-29T20:15:20.284Z,88.59
2023-01-29T20:20:24.557Z,88.56
2023-01-29T20:25:36.540Z,88.18
2023-01-29T20:30:44.801Z,88.79
2023-01-29T20:35:54.969Z,89.47
2023-01-29T20:41:05.702Z,89.21
2023-01-29T20:46:15.175Z,88.93
2023-01-29T20:51:22.932Z,89.01
2023-01-29T20:56:32.147Z,89.50
2023-01-29T21:01:46.271Z,89.92
2023-01-29T21:06:51.414Z,89.67
2023-01-29T21:11:55.952Z,89.96
2023-01-29T21:17:08.461Z,90.11
2023-01-29T21:22:12.698Z,89.67
2023-01-29T21:27:16.852Z,89.26
2023-01-29T21:32:22.436Z,88.75
2023-01-29T21:37:27.227Z,88.53
2023-01-29T21:42:49.024Z,88.20
2023-01-29T21:47:54.594Z,88.42
2023-01-29T21:52:58.617Z,88.37
2023-01-29T21:58:02.630Z,88.53
2023-01-29T22:03:09.000Z,88.68
2023-01-29T22:08:13.465Z,88.57
2023-01-29T22:13:18.608Z,88.95
2023-01-29T22:18:24.125Z,88.27
2023-01-29T22:23:28.216Z,88.76
2023-01-29T22:28:33.350Z,88.96
2023-01-29T22:33:39.399Z,89.20
2023-01-29T22:38:44.715Z,89.87
2023-01-29T22:43:48.768Z,89.98
2023-01-29T22:48:55.321Z,89.46
2023-01-29T22:54:01.231Z,88.86
2023-01-29T22:59:05.304Z,89.46
2023-01-29T23:04:12.867Z,90.02
2023-01-29T23:09:17.157Z,90.04
2023-01-29T23:14:21.313Z,90.43
2023-01-29T23:19:27.571Z,90.47
2023-01-29T23:24:33.884Z,89.29
2023-01-29T23:29:40.493Z,89.84
2023-01-29T23:34:46.573Z,89.72
2023-01-29T23:39:51.564Z,89.18
2023-01-29T23:44:55.557Z,88.83
2023-01-29T23:50:01.134Z,88.28
2023-01-29T23:55:05.791Z,89.41
